createdAt,value
2023-05-09T00:03:56.092Z,59.35
2023-05-09T00:13:59.061Z,45.33
2023-05-09T00:24:03.458Z,48.55
2023-05-09T00:34:06.463Z,41.67
2023-05-09T00:44:11.035Z,40.38
2023-05-09T01:04:18.407Z,39.83
2023-05-09T01:24:51.763Z,34.30
2023-05-09T01:34:57.997Z,33.17
2023-05-09T01:45:01.659Z,34.80
2023-05-09T01:55:07.823Z,26.60
2023-05-09T02:05:12.902Z,37.47
2023-05-09T02:15:17.417Z,43.30
2023-05-09T02:25:21.180Z,41.47
2023-05-09T02:35:27.233Z,39.63
2023-05-09T02:45:30.132Z,42.03
2023-05-09T02:55:34.611Z,42.17
2023-05-09T03:15:42.075Z,44.47
2023-05-09T03:25:47.645Z,40.42
2023-05-09T03:35:53.108Z,39.90
2023-05-09T03:45:56.290Z,43.53
2023-05-09T03:56:01.641Z,42.33
2023-05-09T04:06:09.122Z,41.38
2023-05-09T04:16:17.565Z,39.05
2023-05-09T04:36:29.532Z,29.27
2023-05-09T04:46:34.670Z,28.40
2023-05-09T04:56:39.950Z,26.63
2023-05-09T05:06:42.987Z,25.35
2023-05-09T05:16:47.750Z,25.63
2023-05-09T05:36:55.373Z,28.02
2023-05-09T05:57:04.739Z,23.70
2023-05-09T06:07:08.045Z,23.95
2023-05-09T06:17:12.730Z,25.15
2023-05-09T06:27:16.005Z,21.35
2023-05-09T06:37:20.363Z,23.45
2023-05-09T06:57:27.789Z,19.60
2023-05-09T07:07:30.839Z,19.48
2023-05-09T07:17:35.209Z,17.52
2023-05-09T07:37:42.564Z,17.05
2023-05-09T07:57:51.264Z,20.13
2023-05-09T08:07:54.280Z,18.75
2023-05-09T08:17:58.694Z,19.30
2023-05-09T08:38:06.364Z,13.10
2023-05-09T08:48:10.849Z,12.80
2023-05-09T09:08:20.004Z,12.65
2023-05-09T09:18:31.593Z,10.40
2023-05-09T09:28:35.782Z,12.60
2023-05-09T09:38:48.923Z,10.32
2023-05-09T09:48:57.665Z,10.63
2023-05-09T09:59:12.728Z,11.73
2023-05-09T10:09:15.686Z,12.32
2023-05-09T10:19:21.955Z,18.42
2023-05-09T10:29:31.938Z,12.57
2023-05-09T10:39:37.390Z,12.80
2023-05-09T10:49:44.604Z,13.82
2023-05-09T10:59:52.804Z,16.00
2023-05-09T11:10:09.210Z,13.45
2023-05-09T11:20:13.661Z,19.85
2023-05-09T11:40:29.935Z,8.38
2023-05-09T11:50:33.329Z,10.30
2023-05-09T12:00:46.645Z,10.57
2023-05-09T12:10:49.667Z,10.82
2023-05-09T12:20:57.431Z,9.50
2023-05-09T12:31:08.238Z,9.60
2023-05-09T12:41:33.344Z,9.82
2023-05-09T12:51:49.617Z,8.75
2023-05-09T13:01:56.619Z,7.90
2023-05-09T13:12:00.334Z,8.55
2023-05-09T13:22:04.687Z,11.00
2023-05-09T13:32:08.229Z,8.18
2023-05-09T13:42:12.551Z,9.95
2023-05-09T13:52:17.085Z,9.10
2023-05-09T14:02:21.480Z,9.48
2023-05-09T14:12:28.667Z,8.35
2023-05-09T14:22:36.168Z,7.03
2023-05-09T14:32:45.559Z,10.38
2023-05-09T14:42:59.119Z,10.13
2023-05-09T14:53:02.269Z,10.65
2023-05-09T15:03:12.500Z,7.13
2023-05-09T15:13:18.050Z,10.07
2023-05-09T15:23:25.831Z,8.05
2023-05-09T15:33:35.268Z,8.85
2023-05-09T15:43:43.454Z,8.27
2023-05-09T15:53:51.503Z,9.73
2023-05-09T16:04:06.127Z,8.57
2023-05-09T16:24:19.045Z,6.57
2023-05-09T16:34:25.283Z,8.70
2023-05-09T16:44:33.448Z,7.40
2023-05-09T16:54:40.534Z,11.60
2023-05-09T17:04:54.132Z,6.97
2023-05-09T17:14:57.262Z,8.23
2023-05-09T17:25:07.362Z,4.00
2023-05-09T17:35:13.974Z,7.68
2023-05-09T17:45:21.798Z,6.60
2023-05-09T17:55:31.598Z,7.40
2023-05-09T18:05:42.132Z,11.50
2023-05-09T18:15:48.191Z,15.02
2023-05-09T18:25:56.085Z,15.27
2023-05-09T18:36:04.229Z,13.93
2023-05-09T18:46:08.672Z,11.23
2023-05-09T18:56:11.933Z,17.35
2023-05-09T19:06:16.581Z,12.90
2023-05-09T19:26:26.112Z,17.30
2023-05-09T19:36:29.130Z,21.73
2023-05-09T19:46:33.444Z,22.80
2023-05-09T19:56:36.462Z,30.42
2023-05-09T20:06:41.219Z,28.45
2023-05-09T20:26:48.678Z,24.75
2023-05-09T20:36:53.636Z,29.75
2023-05-09T20:46:57.942Z,31.58
2023-05-09T20:57:00.925Z,29.48
2023-05-09T21:07:05.314Z,33.30
2023-05-09T21:17:08.413Z,35.17
2023-05-09T21:27:12.819Z,40.33
2023-05-09T21:37:16.190Z,33.22
2023-05-09T21:47:20.803Z,31.42
2023-05-09T22:07:28.003Z,16.73
2023-05-09T22:17:31.073Z,21.02
2023-05-09T22:27:35.420Z,31.15
2023-05-09T22:37:38.379Z,32.13
2023-05-09T22:47:42.791Z,40.88
2023-05-09T22:57:45.892Z,50.25
2023-05-09T23:07:50.203Z,49.95
2023-05-09T23:17:53.126Z,46.33
2023-05-09T23:27:57.483Z,50.33
2023-05-09T23:38:00.410Z,42.22
2023-05-09T23:48:05.330Z,51.92
2023-05-09T23:58:08.296Z,56.92
